createdAt,value
2018-04-28T00:01:09.532Z,71.60
2018-04-28T00:03:39.021Z,69.80
2018-04-28T00:06:08.504Z,68.90
2018-04-28T00:08:40.725Z,70.80
2018-04-28T00:11:10.478Z,69.80
2018-04-28T00:13:40.141Z,70.00
2018-04-28T00:16:10.429Z,70.30
2018-04-28T00:19:06.320Z,70.40
2018-04-28T00:21:42.417Z,69.30
2018-04-28T00:24:14.948Z,70.00
2018-04-28T00:26:45.664Z,68.40
2018-04-28T00:29:27.153Z,68.10
2018-04-28T00:31:57.073Z,68.00
2018-04-28T00:34:29.827Z,68.30
2018-04-28T00:37:17.389Z,68.90
2018-04-28T00:39:51.351Z,69.20
2018-04-28T00:42:36.658Z,70.60
2018-04-28T00:45:11.624Z,70.50
2018-04-28T00:47:41.985Z,69.70
2018-04-28T00:50:14.025Z,68.30
2018-04-28T00:52:43.495Z,67.40
2018-04-28T00:55:33.864Z,68.50
2018-04-28T00:58:10.474Z,69.60
2018-04-28T01:00:48.135Z,69.50
2018-04-28T01:03:18.678Z,67.40
2018-04-28T01:05:50.417Z,67.60
2018-04-28T01:08:25.252Z,65.80
2018-04-28T01:11:12.994Z,68.30
2018-04-28T01:13:47.188Z,68.00
2018-04-28T01:16:18.250Z,69.00
2018-04-28T01:18:58.265Z,66.60
2018-04-28T01:21:30.138Z,68.90
2018-04-28T01:24:00.452Z,67.80
2018-04-28T01:26:51.517Z,69.30
2018-04-28T01:29:24.780Z,68.90
2018-04-28T01:31:59.955Z,66.80
2018-04-28T01:34:30.548Z,66.80
2018-04-28T01:37:20.495Z,68.00
2018-04-28T01:39:52.166Z,66.50
2018-04-28T01:42:32.460Z,66.60
2018-04-28T01:45:10.186Z,64.40
2018-04-28T01:47:41.467Z,64.60
2018-04-28T01:50:12.570Z,66.20
2018-04-28T01:52:42.972Z,65.90
2018-04-28T01:55:34.149Z,65.70
2018-04-28T01:58:11.089Z,65.70
2018-04-28T02:00:59.282Z,65.60
2018-04-28T02:03:47.952Z,66.00
2018-04-28T02:06:40.682Z,65.20
2018-04-28T02:09:10.259Z,64.80
2018-04-28T02:12:09.076Z,65.40
2018-04-28T02:15:01.781Z,66.10
2018-04-28T02:17:38.235Z,67.10
2018-04-28T02:20:20.091Z,67.20
2018-04-28T02:22:58.152Z,65.40
2018-04-28T02:25:39.211Z,64.10
2018-04-28T02:28:31.185Z,64.90
2018-04-28T02:34:25.385Z,64.20
2018-04-28T02:37:06.976Z,66.00
2018-04-28T02:42:50.495Z,64.00
2018-04-28T02:45:52.513Z,64.40
2018-04-28T02:48:47.596Z,65.40
2018-04-28T02:51:39.655Z,64.60
2018-04-28T02:54:13.075Z,64.30
2018-04-28T02:56:50.599Z,65.70
2018-04-28T02:59:39.990Z,64.50
2018-04-28T03:02:24.452Z,64.20
2018-04-28T03:04:58.630Z,65.00
2018-04-28T03:07:58.260Z,65.30
2018-04-28T03:10:38.840Z,64.80
2018-04-28T03:16:23.950Z,64.60
2018-04-28T03:18:56.448Z,65.90
2018-04-28T03:21:26.813Z,66.00
2018-04-28T03:27:09.112Z,67.30
2018-04-28T03:29:51.474Z,67.80
2018-04-28T03:32:44.183Z,65.80
2018-04-28T03:35:19.761Z,66.40
2018-04-28T03:38:02.489Z,66.40
2018-04-28T03:40:34.918Z,65.90
2018-04-28T03:43:36.036Z,66.00
2018-04-28T03:46:11.044Z,65.90
2018-04-28T03:48:40.548Z,66.10
2018-04-28T03:51:20.317Z,65.80
2018-04-28T03:53:51.786Z,65.40
2018-04-28T03:56:36.073Z,64.60
2018-04-28T03:59:16.810Z,65.50
2018-04-28T04:01:57.361Z,66.00
2018-04-28T04:04:30.720Z,65.50
2018-04-28T04:07:20.150Z,65.70
2018-04-28T04:13:13.905Z,66.60
2018-04-28T04:16:04.516Z,66.50
2018-04-28T04:18:43.564Z,65.90
2018-04-28T04:21:22.701Z,68.10
2018-04-28T04:24:00.953Z,67.90
2018-04-28T04:26:51.299Z,68.60
2018-04-28T04:29:21.828Z,67.60
2018-04-28T04:35:07.632Z,68.70
2018-04-28T04:37:48.465Z,69.00
2018-04-28T04:40:38.570Z,69.50
2018-04-28T04:43:17.524Z,68.80
2018-04-28T04:45:55.217Z,69.60
2018-04-28T04:48:33.582Z,70.00
2018-04-28T04:51:15.839Z,70.00
2018-04-28T04:53:59.042Z,70.40
2018-04-28T04:56:44.636Z,71.00
2018-04-28T04:59:38.537Z,70.70
2018-04-28T05:02:19.096Z,71.70
2018-04-28T05:05:02.019Z,72.10
2018-04-28T05:07:51.445Z,71.90
2018-04-28T05:10:42.709Z,72.40
2018-04-28T05:13:28.548Z,73.20
2018-04-28T05:16:15.250Z,73.40
2018-04-28T05:19:04.328Z,73.00
2018-04-28T05:21:45.428Z,73.80
2018-04-28T05:24:25.948Z,73.90
2018-04-28T05:27:15.769Z,74.00
2018-04-28T05:29:57.448Z,75.00
2018-04-28T05:32:44.110Z,75.40
2018-04-28T05:35:34.561Z,75.20
2018-04-28T05:41:32.442Z,74.70
2018-04-28T05:44:26.838Z,74.10
2018-04-28T05:47:12.947Z,74.40
2018-04-28T05:49:53.660Z,73.80
2018-04-28T05:52:54.348Z,74.40
2018-04-28T05:55:51.063Z,74.60
2018-04-28T05:58:32.450Z,74.30
2018-04-28T06:01:25.317Z,74.50
2018-04-28T06:04:15.280Z,75.00
2018-04-28T06:06:51.116Z,76.70
2018-04-28T06:09:54.303Z,76.20
2018-04-28T06:15:57.847Z,74.90
2018-04-28T06:18:38.422Z,75.90
2018-04-28T06:21:07.882Z,75.10
2018-04-28T06:23:37.178Z,75.40
2018-04-28T06:26:06.776Z,75.70
2018-04-28T06:28:36.400Z,75.30
2018-04-28T06:31:05.806Z,75.50
2018-04-28T06:33:36.038Z,75.90
2018-04-28T06:36:05.904Z,75.80
2018-04-28T06:38:35.712Z,75.10
2018-04-28T06:41:05.958Z,74.60
2018-04-28T06:43:35.640Z,74.90
2018-04-28T06:46:05.069Z,75.40
2018-04-28T06:48:34.670Z,74.70
2018-04-28T06:51:04.119Z,74.50
2018-04-28T06:53:33.938Z,73.80
2018-04-28T06:56:03.383Z,73.90
2018-04-28T06:58:33.412Z,74.30
2018-04-28T07:01:02.904Z,74.20
2018-04-28T07:03:32.826Z,74.90
2018-04-28T07:06:02.271Z,75.00
2018-04-28T07:08:34.324Z,74.80
2018-04-28T07:11:04.166Z,75.60
2018-04-28T07:13:34.033Z,75.50
2018-04-28T07:16:05.174Z,75.00
2018-04-28T07:18:34.616Z,75.60
2018-04-28T07:21:04.287Z,76.90
2018-04-28T07:23:34.130Z,77.40
2018-04-28T07:26:03.421Z,76.20
2018-04-28T07:28:32.870Z,75.70
2018-04-28T07:31:05.503Z,77.00
2018-04-28T07:33:34.990Z,76.90
2018-04-28T07:36:05.309Z,75.70
2018-04-28T07:38:34.994Z,76.80
2018-04-28T07:41:04.422Z,77.00
2018-04-28T07:43:34.453Z,77.40
2018-04-28T07:46:03.943Z,76.10
2018-04-28T07:48:33.599Z,77.20
2018-04-28T07:51:03.205Z,77.90
2018-04-28T07:53:32.444Z,78.40
2018-04-28T07:56:01.515Z,78.40
2018-04-28T07:58:30.657Z,78.30
2018-04-28T08:01:00.110Z,78.00
2018-04-28T08:03:29.661Z,78.40
2018-04-28T08:05:58.969Z,77.20
2018-04-28T08:08:28.443Z,77.00
2018-04-28T08:10:57.956Z,76.80
2018-04-28T08:13:27.708Z,76.00
2018-04-28T08:15:57.346Z,76.60
2018-04-28T08:18:27.057Z,76.30
2018-04-28T08:20:56.759Z,76.50
2018-04-28T08:23:26.465Z,76.10
2018-04-28T08:25:55.990Z,76.80
2018-04-28T08:28:25.391Z,76.70
2018-04-28T08:30:54.909Z,75.80
2018-04-28T08:33:24.408Z,78.10
2018-04-28T08:35:55.339Z,78.20
2018-04-28T08:38:24.677Z,77.90
2018-04-28T08:40:54.155Z,78.80
2018-04-28T08:43:23.888Z,78.90
2018-04-28T08:45:53.141Z,79.90
2018-04-28T08:48:22.874Z,80.60
2018-04-28T08:50:51.974Z,80.70
2018-04-28T08:53:21.424Z,81.30
2018-04-28T08:55:50.729Z,81.30
2018-04-28T08:58:20.082Z,81.10
2018-04-28T09:01:05.121Z,81.10
2018-04-28T09:03:34.410Z,81.20
2018-04-28T09:06:03.742Z,79.20
2018-04-28T09:08:33.843Z,78.10
2018-04-28T09:11:03.313Z,78.00
2018-04-28T09:13:32.854Z,77.50
2018-04-28T09:16:03.405Z,79.50
2018-04-28T09:18:32.757Z,79.40
2018-04-28T09:21:01.878Z,79.60
2018-04-28T09:23:30.948Z,80.30
2018-04-28T09:26:00.290Z,79.70
2018-04-28T09:28:29.574Z,79.50
2018-04-28T09:30:58.892Z,78.90
2018-04-28T09:33:28.186Z,79.60
2018-04-28T09:35:57.463Z,79.90
2018-04-28T09:38:27.769Z,80.30
2018-04-28T09:40:57.244Z,80.40
2018-04-28T09:43:26.389Z,79.40
2018-04-28T09:45:55.942Z,79.10
2018-04-28T09:48:25.090Z,79.50
2018-04-28T09:50:54.196Z,79.40
2018-04-28T09:53:23.840Z,79.90
2018-04-28T09:55:52.898Z,80.00
2018-04-28T09:58:23.053Z,81.10
2018-04-28T10:00:52.305Z,81.20
2018-04-28T10:03:22.730Z,82.30
2018-04-28T10:05:52.323Z,82.40
2018-04-28T10:08:21.746Z,83.20
2018-04-28T10:10:51.082Z,84.00
2018-04-28T10:13:20.376Z,85.00
2018-04-28T10:15:49.737Z,86.00
2018-04-28T10:18:19.032Z,87.10
2018-04-28T10:20:48.320Z,87.20
2018-04-28T10:23:17.556Z,87.10
2018-04-28T10:25:46.820Z,87.50
2018-04-28T10:28:16.161Z,87.70
2018-04-28T10:30:45.482Z,87.60
2018-04-28T10:33:14.636Z,87.40
2018-04-28T10:35:44.164Z,87.30
2018-04-28T10:38:13.598Z,87.10
2018-04-28T10:40:44.364Z,87.10
2018-04-28T10:43:13.652Z,87.10
2018-04-28T10:45:42.997Z,87.00
2018-04-28T10:48:12.467Z,86.70
2018-04-28T10:50:42.610Z,86.80
2018-04-28T10:53:11.906Z,85.90
2018-04-28T10:55:41.185Z,86.30
2018-04-28T10:58:10.462Z,86.00
2018-04-28T11:00:39.769Z,85.70
2018-04-28T11:03:09.000Z,85.80
2018-04-28T11:05:38.469Z,86.10
2018-04-28T11:08:08.078Z,86.10
2018-04-28T11:10:37.397Z,86.00
2018-04-28T11:13:06.908Z,86.20
2018-04-28T11:15:36.210Z,85.80
2018-04-28T11:18:05.496Z,85.90
2018-04-28T11:20:34.767Z,86.40
2018-04-28T11:23:04.123Z,86.10
2018-04-28T11:25:33.465Z,85.70
2018-04-28T11:28:02.904Z,85.50
2018-04-28T11:30:32.172Z,85.80
2018-04-28T11:33:01.585Z,86.70
2018-04-28T11:35:30.583Z,85.90
2018-04-28T11:37:59.697Z,85.50
2018-04-28T11:40:28.968Z,85.20
2018-04-28T11:42:58.318Z,85.30
2018-04-28T11:45:27.584Z,85.50
2018-04-28T11:47:56.863Z,85.60
2018-04-28T11:50:26.485Z,85.60
2018-04-28T11:52:55.734Z,86.40
2018-04-28T11:55:24.785Z,87.70
2018-04-28T11:57:53.869Z,88.70
2018-04-28T12:00:22.965Z,88.70
2018-04-28T12:02:52.104Z,89.10
2018-04-28T12:05:21.152Z,89.20
2018-04-28T12:07:50.264Z,89.50
2018-04-28T12:10:19.764Z,89.70
2018-04-28T12:12:48.860Z,89.50
2018-04-28T12:15:18.150Z,88.80
2018-04-28T12:17:48.880Z,89.50
2018-04-28T12:20:18.585Z,89.50
2018-04-28T12:22:47.697Z,89.80
2018-04-28T12:25:16.782Z,89.90
2018-04-28T12:27:47.523Z,89.90
2018-04-28T12:30:16.612Z,89.90
2018-04-28T12:32:45.794Z,90.00
2018-04-28T12:35:15.005Z,90.00
2018-04-28T12:37:45.259Z,90.00
2018-04-28T12:40:15.048Z,89.80
2018-04-28T12:42:46.166Z,90.00
2018-04-28T12:45:15.459Z,90.00
2018-04-28T12:47:44.774Z,89.80
2018-04-28T12:50:13.886Z,90.10
2018-04-28T12:52:43.323Z,90.00
2018-04-28T12:55:12.887Z,89.50
2018-04-28T12:57:42.377Z,90.10
2018-04-28T13:00:11.498Z,89.90
2018-04-28T13:02:40.542Z,89.90
2018-04-28T13:05:09.853Z,89.20
2018-04-28T13:07:39.178Z,89.10
2018-04-28T13:10:09.485Z,88.60
2018-04-28T13:12:38.810Z,88.40
2018-04-28T13:15:08.129Z,88.40
2018-04-28T13:17:37.454Z,87.60
2018-04-28T13:20:06.712Z,88.20
2018-04-28T13:22:36.030Z,87.50
2018-04-28T13:25:05.351Z,87.50
2018-04-28T13:27:34.577Z,87.90
2018-04-28T13:30:03.873Z,87.80
2018-04-28T13:32:32.976Z,88.00
2018-04-28T13:35:02.315Z,87.80
2018-04-28T13:37:31.380Z,87.20
2018-04-28T13:40:00.769Z,87.20
2018-04-28T13:42:30.488Z,87.20
2018-04-28T13:45:00.600Z,87.40
2018-04-28T13:47:29.696Z,88.00
2018-04-28T13:49:58.883Z,87.80
2018-04-28T13:52:28.414Z,87.00
2018-04-28T13:54:57.886Z,87.10
2018-04-28T13:57:27.255Z,87.00
2018-04-28T13:59:56.827Z,86.30
2018-04-28T14:02:26.106Z,86.90
2018-04-28T14:04:55.454Z,86.80
2018-04-28T14:07:24.494Z,86.70
2018-04-28T14:09:53.668Z,87.10
2018-04-28T14:12:22.904Z,87.80
2018-04-28T14:14:52.297Z,87.60
2018-04-28T14:17:21.809Z,86.30
2018-04-28T14:19:51.311Z,86.30
2018-04-28T14:22:20.403Z,85.00
2018-04-28T14:24:49.717Z,85.10
2018-04-28T14:27:18.982Z,85.10
2018-04-28T14:29:48.333Z,85.30
2018-04-28T14:32:17.404Z,84.70
2018-04-28T14:34:46.722Z,85.30
2018-04-28T14:37:15.982Z,84.30
2018-04-28T14:39:45.103Z,83.80
2018-04-28T14:42:14.414Z,82.50
2018-04-28T14:44:43.455Z,82.20
2018-04-28T14:47:12.857Z,81.00
2018-04-28T14:49:42.071Z,81.40
2018-04-28T14:52:11.366Z,81.20
2018-04-28T14:54:40.674Z,81.40
2018-04-28T14:57:10.004Z,81.60
2018-04-28T14:59:39.495Z,78.90
2018-04-28T15:02:08.579Z,81.00
2018-04-28T15:04:39.531Z,78.80
2018-04-28T15:07:09.461Z,78.60
2018-04-28T15:09:39.244Z,79.10
2018-04-28T15:12:09.457Z,77.10
2018-04-28T15:14:39.817Z,76.90
2018-04-28T15:17:09.942Z,76.80
2018-04-28T15:19:39.182Z,76.50
2018-04-28T15:22:08.394Z,71.90
2018-04-28T15:24:37.724Z,70.70
2018-04-28T15:27:07.248Z,71.80
2018-04-28T15:29:36.976Z,71.50
2018-04-28T15:32:06.005Z,70.10
2018-04-28T15:34:35.272Z,70.80
2018-04-28T15:37:04.407Z,71.20
2018-04-28T15:39:34.541Z,70.90
2018-04-28T15:42:03.828Z,70.80
2018-04-28T15:44:33.113Z,67.10
2018-04-28T15:47:03.442Z,67.90
2018-04-28T15:49:33.574Z,68.50
2018-04-28T15:52:02.890Z,68.50
2018-04-28T15:54:32.206Z,72.20
2018-04-28T15:57:01.475Z,67.30
2018-04-28T15:59:30.539Z,66.60
2018-04-28T16:01:59.862Z,68.20
2018-04-28T16:04:29.253Z,64.30
2018-04-28T16:06:58.771Z,66.80
2018-04-28T16:09:28.894Z,68.00
2018-04-28T16:11:57.999Z,67.90
2018-04-28T16:14:27.232Z,67.50
2018-04-28T16:16:56.580Z,63.30
2018-04-28T16:19:25.872Z,62.80
2018-04-28T16:21:55.150Z,64.00
2018-04-28T16:24:24.254Z,64.20
2018-04-28T16:26:53.337Z,65.70
2018-04-28T16:29:22.633Z,63.60
2018-04-28T16:31:51.949Z,64.40
2018-04-28T16:34:21.264Z,66.20
2018-04-28T16:36:51.641Z,63.00
2018-04-28T16:39:21.194Z,63.70
2018-04-28T16:41:51.902Z,62.50
2018-04-28T16:44:21.222Z,62.40
2018-04-28T16:46:50.588Z,61.70
2018-04-28T16:49:19.921Z,60.80
2018-04-28T16:51:49.444Z,61.30
2018-04-28T16:54:18.833Z,61.40
2018-04-28T16:56:48.201Z,61.00
2018-04-28T16:59:17.812Z,59.80
2018-04-28T17:01:47.149Z,62.00
2018-04-28T17:04:16.419Z,60.70
2018-04-28T17:06:45.752Z,61.30
2018-04-28T17:09:15.088Z,57.40
2018-04-28T17:11:44.333Z,56.40
2018-04-28T17:14:13.605Z,57.90
2018-04-28T17:16:42.936Z,55.80
2018-04-28T17:19:12.049Z,57.90
2018-04-28T17:21:41.563Z,57.00
2018-04-28T17:24:10.837Z,56.00
2018-04-28T17:26:39.942Z,56.20
2018-04-28T17:29:09.216Z,58.30
2018-04-28T17:31:38.774Z,51.90
2018-04-28T17:34:07.799Z,51.60
2018-04-28T17:36:37.774Z,52.80
2018-04-28T17:39:07.130Z,51.40
2018-04-28T17:41:36.325Z,53.80
2018-04-28T17:44:05.480Z,52.10
2018-04-28T17:46:34.714Z,47.50
2018-04-28T17:49:05.275Z,47.10
2018-04-28T17:51:34.751Z,47.00
2018-04-28T17:54:03.969Z,44.30
2018-04-28T17:56:33.983Z,39.60
2018-04-28T17:59:04.187Z,43.70
2018-04-28T18:01:33.660Z,43.60
2018-04-28T18:04:03.022Z,46.00
2018-04-28T18:06:32.257Z,40.70
2018-04-28T18:09:01.625Z,34.70
2018-04-28T18:11:31.057Z,34.90
2018-04-28T18:14:00.595Z,36.20
2018-04-28T18:16:29.771Z,38.90
2018-04-28T18:18:58.970Z,32.50
2018-04-28T18:21:28.409Z,25.80
2018-04-28T18:23:58.400Z,24.90
2018-04-28T18:26:27.855Z,24.90
2018-04-28T18:28:57.090Z,30.20
2018-04-28T18:31:26.205Z,29.60
2018-04-28T18:33:55.603Z,22.80
2018-04-28T18:36:24.695Z,24.70
2018-04-28T18:38:54.050Z,20.30
2018-04-28T18:41:23.609Z,24.10
2018-04-28T18:43:53.687Z,23.40
2018-04-28T18:46:22.783Z,23.10
2018-04-28T18:48:52.207Z,22.80
2018-04-28T18:51:21.588Z,20.70
2018-04-28T18:53:51.428Z,18.40
2018-04-28T18:56:20.714Z,18.50
2018-04-28T18:58:50.613Z,19.40
2018-04-28T19:01:20.002Z,16.00
2018-04-28T19:03:50.245Z,18.60
2018-04-28T19:06:19.493Z,18.60
2018-04-28T19:08:49.609Z,22.00
2018-04-28T19:11:19.542Z,23.40
2018-04-28T19:13:49.132Z,23.30
2018-04-28T19:16:18.396Z,26.00
2018-04-28T19:18:47.695Z,21.20
2018-04-28T19:21:16.795Z,23.80
2018-04-28T19:23:45.911Z,26.20
2018-04-28T19:26:15.229Z,26.20
2018-04-28T19:28:44.675Z,21.80
2018-04-28T19:31:14.280Z,21.80
2018-04-28T19:33:43.499Z,19.80
2018-04-28T19:36:12.795Z,20.80
2018-04-28T19:38:42.311Z,19.30
2018-04-28T19:41:11.693Z,23.20
2018-04-28T19:43:41.218Z,21.50
2018-04-28T19:46:10.272Z,25.00
2018-04-28T19:48:39.387Z,26.40
2018-04-28T19:51:10.962Z,26.90
2018-04-28T19:53:40.563Z,26.80
2018-04-28T19:56:11.082Z,26.50
2018-04-28T19:58:40.546Z,25.70
2018-04-28T20:01:09.879Z,21.50
2018-04-28T20:03:39.203Z,20.80
2018-04-28T20:06:08.572Z,22.40
2018-04-28T20:08:37.870Z,24.10
2018-04-28T20:11:07.027Z,23.80
2018-04-28T20:13:36.101Z,22.80
2018-04-28T20:16:05.218Z,23.30
2018-04-28T20:18:34.520Z,25.10
2018-04-28T20:21:03.921Z,24.10
2018-04-28T20:23:44.453Z,17.30
2018-04-28T20:26:14.597Z,23.30
2018-04-28T20:28:44.173Z,23.30
2018-04-28T20:31:13.655Z,23.50
2018-04-28T20:33:42.981Z,23.90
2018-04-28T20:36:12.114Z,24.70
2018-04-28T20:38:42.809Z,29.80
2018-04-28T20:41:12.401Z,29.70
2018-04-28T20:43:41.480Z,20.20
2018-04-28T20:46:11.626Z,24.40
2018-04-28T20:48:41.343Z,25.80
2018-04-28T20:51:12.108Z,21.40
2018-04-28T20:53:41.430Z,22.50
2018-04-28T20:56:10.798Z,21.20
2018-04-28T20:58:40.241Z,22.80
2018-04-28T21:01:09.536Z,17.30
2018-04-28T21:03:38.722Z,18.10
2018-04-28T21:06:08.043Z,22.40
2018-04-28T21:08:37.737Z,21.80
2018-04-28T21:11:07.260Z,18.00
2018-04-28T21:13:36.405Z,24.20
2018-04-28T21:16:05.802Z,18.20
2018-04-28T21:18:35.818Z,16.50
2018-04-28T21:21:05.300Z,17.30
2018-04-28T21:23:34.569Z,20.60
2018-04-28T21:26:04.067Z,18.60
2018-04-28T21:28:33.389Z,18.30
2018-04-28T21:31:02.698Z,21.40
2018-04-28T21:33:32.026Z,20.90
2018-04-28T21:36:01.255Z,21.70
2018-04-28T21:38:30.473Z,21.10
2018-04-28T21:40:59.952Z,22.10
2018-04-28T21:43:29.914Z,24.10
2018-04-28T21:45:59.446Z,25.80
2018-04-28T21:48:28.525Z,33.40
2018-04-28T21:50:58.997Z,34.50
2018-04-28T21:53:29.362Z,35.10
2018-04-28T21:55:58.644Z,37.40
2018-04-28T21:58:28.146Z,43.30
2018-04-28T22:00:57.667Z,39.70
2018-04-28T22:03:26.997Z,38.30
2018-04-28T22:05:56.070Z,38.40
2018-04-28T22:08:25.329Z,34.20
2018-04-28T22:10:55.126Z,37.00
2018-04-28T22:13:24.871Z,33.50
2018-04-28T22:15:54.701Z,25.80
2018-04-28T22:18:24.900Z,28.40
2018-04-28T22:20:54.199Z,28.30
2018-04-28T22:23:23.521Z,30.30
2018-04-28T22:25:53.332Z,30.40
2018-04-28T22:28:22.951Z,29.70
2018-04-28T22:30:52.434Z,29.30
2018-04-28T22:33:21.756Z,33.10
2018-04-28T22:35:51.051Z,30.50
2018-04-28T22:38:20.122Z,32.00
2018-04-28T22:40:49.222Z,26.90
2018-04-28T22:43:19.147Z,34.20
2018-04-28T22:45:48.612Z,34.30
2018-04-28T22:48:17.963Z,36.70
2018-04-28T22:50:47.265Z,38.60
2018-04-28T22:53:16.610Z,33.80
2018-04-28T22:55:45.820Z,33.60
2018-04-28T22:58:15.785Z,34.10
2018-04-28T23:00:45.034Z,31.00
2018-04-28T23:03:14.177Z,30.00
2018-04-28T23:05:43.412Z,29.30
2018-04-28T23:08:12.672Z,29.90
2018-04-28T23:10:41.765Z,29.90
2018-04-28T23:13:11.387Z,29.10
2018-04-28T23:15:41.182Z,29.80
2018-04-28T23:18:10.490Z,29.70
2018-04-28T23:20:39.532Z,28.60
2018-04-28T23:23:08.852Z,32.80
2018-04-28T23:25:38.326Z,26.30
2018-04-28T23:28:07.533Z,29.30
2018-04-28T23:30:36.948Z,23.60
2018-04-28T23:33:08.094Z,26.60
2018-04-28T23:35:37.441Z,26.60
2018-04-28T23:38:06.681Z,25.70
2018-04-28T23:40:36.017Z,27.80
2018-04-28T23:43:05.503Z,25.80
2018-04-28T23:45:34.955Z,25.40
2018-04-28T23:48:04.292Z,25.50
2018-04-28T23:50:33.633Z,28.80
2018-04-28T23:53:02.855Z,27.60
2018-04-28T23:55:33.026Z,29.30
2018-04-28T23:58:02.262Z,28.20
